sensor_id;sensor_type;location;lat;lon;timestamp;P1;durP1;ratioP1;P2;durP2;ratioP2
62707;SDS011;48769;51.624;5.886;2022-12-18T00:00:03;79.32;;;36.83;;
62707;SDS011;48769;51.624;5.886;2022-12-18T00:02:30;80.05;;;35.08;;
62707;SDS011;48769;51.624;5.886;2022-12-18T00:04:55;87.53;;;36.75;;
62707;SDS011;48769;51.624;5.886;2022-12-18T00:07:21;77.88;;;35.72;;
62707;SDS011;48769;51.624;5.886;2022-12-18T00:09:46;76.10;;;34.50;;
62707;SDS011;48769;51.624;5.886;2022-12-18T00:12:11;77.72;;;34.72;;
62707;SDS011;48769;51.624;5.886;2022-12-18T00:14:37;80.30;;;35.80;;
62707;SDS011;48769;51.624;5.886;2022-12-18T00:17:02;75.07;;;33.75;;
62707;SDS011;48769;51.624;5.886;2022-12-18T00:19:27;68.95;;;32.97;;
62707;SDS011;48769;51.624;5.886;2022-12-18T00:21:53;72.18;;;34.30;;
62707;SDS011;48769;51.624;5.886;2022-12-18T00:24:18;79.43;;;36.30;;
62707;SDS011;48769;51.624;5.886;2022-12-18T00:26:44;73.72;;;34.45;;
62707;SDS011;48769;51.624;5.886;2022-12-18T00:29:11;67.60;;;31.90;;
62707;SDS011;48769;51.624;5.886;2022-12-18T00:31:38;74.25;;;34.70;;
62707;SDS011;48769;51.624;5.886;2022-12-18T00:34:04;70.38;;;33.88;;
62707;SDS011;48769;51.624;5.886;2022-12-18T00:36:31;76.28;;;34.47;;
62707;SDS011;48769;51.624;5.886;2022-12-18T00:38:58;63.47;;;32.22;;
62707;SDS011;48769;51.624;5.886;2022-12-18T00:41:25;70.68;;;31.08;;
62707;SDS011;48769;51.624;5.886;2022-12-18T00:44:11;70.40;;;31.50;;
62707;SDS011;48769;51.624;5.886;2022-12-18T00:46:38;68.38;;;34.15;;
62707;SDS011;48769;51.624;5.886;2022-12-18T00:49:03;68.80;;;32.30;;
62707;SDS011;48769;51.624;5.886;2022-12-18T00:51:29;72.00;;;31.83;;
62707;SDS011;48769;51.624;5.886;2022-12-18T00:53:54;65.50;;;30.63;;
62707;SDS011;48769;51.624;5.886;2022-12-18T00:56:20;63.05;;;32.28;;
62707;SDS011;48769;51.624;5.886;2022-12-18T00:58:47;66.93;;;30.83;;
62707;SDS011;48769;51.624;5.886;2022-12-18T01:01:13;68.03;;;31.48;;
62707;SDS011;48769;51.624;5.886;2022-12-18T01:03:38;69.68;;;31.33;;
62707;SDS011;48769;51.624;5.886;2022-12-18T01:06:07;64.70;;;31.45;;
62707;SDS011;48769;51.624;5.886;2022-12-18T01:08:33;66.60;;;30.25;;
62707;SDS011;48769;51.624;5.886;2022-12-18T01:10:59;59.67;;;28.70;;
62707;SDS011;48769;51.624;5.886;2022-12-18T01:13:24;68.93;;;32.00;;
62707;SDS011;48769;51.624;5.886;2022-12-18T01:15:50;66.35;;;30.80;;
62707;SDS011;48769;51.624;5.886;2022-12-18T01:18:15;65.20;;;28.95;;
62707;SDS011;48769;51.624;5.886;2022-12-18T01:20:41;59.72;;;29.08;;
62707;SDS011;48769;51.624;5.886;2022-12-18T01:23:06;62.83;;;29.35;;
62707;SDS011;48769;51.624;5.886;2022-12-18T01:25:32;56.22;;;28.95;;
62707;SDS011;48769;51.624;5.886;2022-12-18T01:27:57;62.13;;;28.55;;
62707;SDS011;48769;51.624;5.886;2022-12-18T01:30:22;63.13;;;29.23;;
62707;SDS011;48769;51.624;5.886;2022-12-18T01:32:48;58.15;;;28.33;;
62707;SDS011;48769;51.624;5.886;2022-12-18T01:35:14;56.13;;;28.33;;
62707;SDS011;48769;51.624;5.886;2022-12-18T01:37:39;58.53;;;27.63;;
62707;SDS011;48769;51.624;5.886;2022-12-18T01:40:04;59.25;;;28.80;;
62707;SDS011;48769;51.624;5.886;2022-12-18T01:42:30;56.53;;;27.35;;
62707;SDS011;48769;51.624;5.886;2022-12-18T01:47:47;56.78;;;27.80;;
62707;SDS011;48769;51.624;5.886;2022-12-18T01:50:15;59.92;;;27.75;;
62707;SDS011;48769;51.624;5.886;2022-12-18T01:52:50;57.55;;;26.38;;
62707;SDS011;48769;51.624;5.886;2022-12-18T01:55:18;58.42;;;26.73;;
62707;SDS011;48769;51.624;5.886;2022-12-18T01:57:47;54.70;;;27.02;;
62707;SDS011;48769;51.624;5.886;2022-12-18T02:00:14;57.13;;;27.60;;
62707;SDS011;48769;51.624;5.886;2022-12-18T02:02:43;64.03;;;26.63;;
62707;SDS011;48769;51.624;5.886;2022-12-18T02:05:09;51.20;;;26.33;;
62707;SDS011;48769;51.624;5.886;2022-12-18T02:10:20;54.10;;;26.30;;
62707;SDS011;48769;51.624;5.886;2022-12-18T02:12:55;49.90;;;25.45;;
62707;SDS011;48769;51.624;5.886;2022-12-18T02:15:31;57.13;;;25.48;;
62707;SDS011;48769;51.624;5.886;2022-12-18T02:18:08;51.22;;;25.67;;
62707;SDS011;48769;51.624;5.886;2022-12-18T02:20:48;51.80;;;23.63;;
62707;SDS011;48769;51.624;5.886;2022-12-18T02:29:00;53.83;;;25.40;;
62707;SDS011;48769;51.624;5.886;2022-12-18T02:31:31;51.83;;;26.50;;
62707;SDS011;48769;51.624;5.886;2022-12-18T02:34:02;48.93;;;24.97;;
62707;SDS011;48769;51.624;5.886;2022-12-18T02:36:30;52.67;;;25.08;;
62707;SDS011;48769;51.624;5.886;2022-12-18T02:38:58;49.20;;;25.70;;
62707;SDS011;48769;51.624;5.886;2022-12-18T02:41:25;52.63;;;24.75;;
62707;SDS011;48769;51.624;5.886;2022-12-18T02:43:55;52.05;;;25.30;;
62707;SDS011;48769;51.624;5.886;2022-12-18T02:46:42;53.03;;;24.95;;
62707;SDS011;48769;51.624;5.886;2022-12-18T02:52:01;53.30;;;23.83;;
62707;SDS011;48769;51.624;5.886;2022-12-18T03:00:04;50.88;;;24.35;;
62707;SDS011;48769;51.624;5.886;2022-12-18T03:07:44;46.47;;;22.75;;
62707;SDS011;48769;51.624;5.886;2022-12-18T03:10:23;53.58;;;22.75;;
62707;SDS011;48769;51.624;5.886;2022-12-18T03:13:03;48.83;;;23.98;;
62707;SDS011;48769;51.624;5.886;2022-12-18T03:15:38;49.60;;;24.23;;
62707;SDS011;48769;51.624;5.886;2022-12-18T03:18:20;49.20;;;23.70;;
62707;SDS011;48769;51.624;5.886;2022-12-18T03:20:46;49.22;;;23.23;;
62707;SDS011;48769;51.624;5.886;2022-12-18T03:23:15;47.75;;;22.92;;
62707;SDS011;48769;51.624;5.886;2022-12-18T03:25:45;45.00;;;23.08;;
62707;SDS011;48769;51.624;5.886;2022-12-18T03:28:14;46.50;;;22.05;;
62707;SDS011;48769;51.624;5.886;2022-12-18T03:30:44;42.63;;;21.52;;
62707;SDS011;48769;51.624;5.886;2022-12-18T03:33:19;42.92;;;21.42;;
62707;SDS011;48769;51.624;5.886;2022-12-18T03:35:50;41.72;;;21.23;;
62707;SDS011;48769;51.624;5.886;2022-12-18T03:38:15;44.95;;;21.77;;
62707;SDS011;48769;51.624;5.886;2022-12-18T03:40:44;42.97;;;21.70;;
62707;SDS011;48769;51.624;5.886;2022-12-18T03:46:29;44.42;;;21.88;;
62707;SDS011;48769;51.624;5.886;2022-12-18T03:49:03;42.97;;;22.63;;
62707;SDS011;48769;51.624;5.886;2022-12-18T03:51:39;43.92;;;23.40;;
62707;SDS011;48769;51.624;5.886;2022-12-18T03:54:06;43.50;;;21.35;;
62707;SDS011;48769;51.624;5.886;2022-12-18T03:56:39;44.42;;;22.23;;
62707;SDS011;48769;51.624;5.886;2022-12-18T03:59:09;38.88;;;21.88;;
62707;SDS011;48769;51.624;5.886;2022-12-18T04:01:38;48.42;;;22.42;;
62707;SDS011;48769;51.624;5.886;2022-12-18T04:04:07;44.20;;;22.23;;
62707;SDS011;48769;51.624;5.886;2022-12-18T04:06:35;48.22;;;22.88;;
62707;SDS011;48769;51.624;5.886;2022-12-18T04:09:03;42.03;;;22.10;;
62707;SDS011;48769;51.624;5.886;2022-12-18T04:11:29;41.65;;;21.33;;
62707;SDS011;48769;51.624;5.886;2022-12-18T04:13:55;41.33;;;21.48;;
62707;SDS011;48769;51.624;5.886;2022-12-18T04:16:22;42.85;;;22.13;;
62707;SDS011;48769;51.624;5.886;2022-12-18T04:18:48;43.97;;;21.33;;
62707;SDS011;48769;51.624;5.886;2022-12-18T04:21:13;49.45;;;22.48;;
62707;SDS011;48769;51.624;5.886;2022-12-18T04:23:39;39.83;;;20.88;;
62707;SDS011;48769;51.624;5.886;2022-12-18T04:26:04;38.05;;;20.55;;
62707;SDS011;48769;51.624;5.886;2022-12-18T04:28:29;40.25;;;20.25;;
62707;SDS011;48769;51.624;5.886;2022-12-18T04:30:55;42.85;;;20.95;;
62707;SDS011;48769;51.624;5.886;2022-12-18T04:33:20;42.08;;;21.45;;
62707;SDS011;48769;51.624;5.886;2022-12-18T04:35:45;39.90;;;20.73;;
62707;SDS011;48769;51.624;5.886;2022-12-18T04:38:11;43.83;;;21.10;;
62707;SDS011;48769;51.624;5.886;2022-12-18T04:40:37;39.17;;;20.10;;
62707;SDS011;48769;51.624;5.886;2022-12-18T04:43:03;41.60;;;20.88;;
62707;SDS011;48769;51.624;5.886;2022-12-18T04:45:29;40.53;;;19.15;;
62707;SDS011;48769;51.624;5.886;2022-12-18T04:47:57;42.28;;;20.80;;
62707;SDS011;48769;51.624;5.886;2022-12-18T04:50:22;46.67;;;21.75;;
62707;SDS011;48769;51.624;5.886;2022-12-18T04:52:48;43.58;;;19.85;;
62707;SDS011;48769;51.624;5.886;2022-12-18T04:55:13;43.42;;;19.83;;
62707;SDS011;48769;51.624;5.886;2022-12-18T04:57:39;40.30;;;19.98;;
62707;SDS011;48769;51.624;5.886;2022-12-18T05:00:04;44.72;;;20.50;;
62707;SDS011;48769;51.624;5.886;2022-12-18T05:02:31;44.53;;;19.45;;
62707;SDS011;48769;51.624;5.886;2022-12-18T05:04:56;41.55;;;21.02;;
62707;SDS011;48769;51.624;5.886;2022-12-18T05:07:21;39.53;;;19.83;;
62707;SDS011;48769;51.624;5.886;2022-12-18T05:09:47;41.45;;;20.52;;
62707;SDS011;48769;51.624;5.886;2022-12-18T05:12:12;41.00;;;20.77;;
62707;SDS011;48769;51.624;5.886;2022-12-18T05:14:37;33.95;;;19.70;;
62707;SDS011;48769;51.624;5.886;2022-12-18T05:17:03;41.60;;;21.13;;
62707;SDS011;48769;51.624;5.886;2022-12-18T05:19:28;41.53;;;20.90;;
62707;SDS011;48769;51.624;5.886;2022-12-18T05:21:53;45.67;;;20.75;;
62707;SDS011;48769;51.624;5.886;2022-12-18T05:24:19;41.92;;;20.77;;
62707;SDS011;48769;51.624;5.886;2022-12-18T05:26:44;41.45;;;20.27;;
62707;SDS011;48769;51.624;5.886;2022-12-18T05:29:09;40.83;;;20.23;;
62707;SDS011;48769;51.624;5.886;2022-12-18T05:31:37;36.05;;;19.98;;
62707;SDS011;48769;51.624;5.886;2022-12-18T05:34:03;40.25;;;20.58;;
62707;SDS011;48769;51.624;5.886;2022-12-18T05:36:28;42.53;;;21.80;;
62707;SDS011;48769;51.624;5.886;2022-12-18T05:38:53;40.10;;;21.88;;
62707;SDS011;48769;51.624;5.886;2022-12-18T05:41:19;46.47;;;21.50;;
62707;SDS011;48769;51.624;5.886;2022-12-18T05:43:44;46.10;;;23.33;;
62707;SDS011;48769;51.624;5.886;2022-12-18T05:46:13;45.85;;;21.60;;
62707;SDS011;48769;51.624;5.886;2022-12-18T05:48:40;39.03;;;20.80;;
62707;SDS011;48769;51.624;5.886;2022-12-18T05:51:07;38.03;;;20.70;;
62707;SDS011;48769;51.624;5.886;2022-12-18T05:53:34;38.58;;;21.17;;
62707;SDS011;48769;51.624;5.886;2022-12-18T05:56:01;44.45;;;21.83;;
62707;SDS011;48769;51.624;5.886;2022-12-18T05:58:27;38.85;;;21.38;;
62707;SDS011;48769;51.624;5.886;2022-12-18T06:00:52;47.40;;;21.48;;
62707;SDS011;48769;51.624;5.886;2022-12-18T06:03:18;39.45;;;20.48;;
62707;SDS011;48769;51.624;5.886;2022-12-18T06:05:44;42.53;;;21.23;;
62707;SDS011;48769;51.624;5.886;2022-12-18T06:08:11;41.35;;;22.25;;
62707;SDS011;48769;51.624;5.886;2022-12-18T06:10:37;44.25;;;21.33;;
62707;SDS011;48769;51.624;5.886;2022-12-18T06:13:02;46.80;;;21.90;;
62707;SDS011;48769;51.624;5.886;2022-12-18T06:15:28;41.40;;;22.88;;
62707;SDS011;48769;51.624;5.886;2022-12-18T06:17:53;42.20;;;21.38;;
62707;SDS011;48769;51.624;5.886;2022-12-18T06:20:19;38.10;;;20.90;;
62707;SDS011;48769;51.624;5.886;2022-12-18T06:22:45;45.22;;;21.45;;
62707;SDS011;48769;51.624;5.886;2022-12-18T06:25:10;42.42;;;21.67;;
62707;SDS011;48769;51.624;5.886;2022-12-18T06:27:36;49.95;;;22.17;;
62707;SDS011;48769;51.624;5.886;2022-12-18T06:30:02;37.38;;;19.52;;
62707;SDS011;48769;51.624;5.886;2022-12-18T06:32:31;40.17;;;21.52;;
62707;SDS011;48769;51.624;5.886;2022-12-18T06:34:56;44.63;;;22.15;;
62707;SDS011;48769;51.624;5.886;2022-12-18T06:37:21;40.50;;;21.20;;
62707;SDS011;48769;51.624;5.886;2022-12-18T06:39:50;42.70;;;22.02;;
62707;SDS011;48769;51.624;5.886;2022-12-18T06:42:16;43.88;;;20.85;;
62707;SDS011;48769;51.624;5.886;2022-12-18T06:44:41;40.72;;;20.10;;
62707;SDS011;48769;51.624;5.886;2022-12-18T06:47:07;43.28;;;21.15;;
62707;SDS011;48769;51.624;5.886;2022-12-18T06:49:32;42.42;;;20.38;;
62707;SDS011;48769;51.624;5.886;2022-12-18T06:51:57;44.03;;;21.67;;
62707;SDS011;48769;51.624;5.886;2022-12-18T06:54:23;45.10;;;20.20;;
62707;SDS011;48769;51.624;5.886;2022-12-18T06:56:48;39.63;;;20.15;;
62707;SDS011;48769;51.624;5.886;2022-12-18T06:59:13;42.55;;;21.23;;
62707;SDS011;48769;51.624;5.886;2022-12-18T07:01:39;40.42;;;20.15;;
62707;SDS011;48769;51.624;5.886;2022-12-18T07:04:05;43.83;;;20.40;;
62707;SDS011;48769;51.624;5.886;2022-12-18T07:06:30;37.55;;;20.65;;
62707;SDS011;48769;51.624;5.886;2022-12-18T07:08:56;34.95;;;19.65;;
62707;SDS011;48769;51.624;5.886;2022-12-18T07:11:21;42.75;;;20.80;;
62707;SDS011;48769;51.624;5.886;2022-12-18T07:13:47;41.33;;;19.95;;
62707;SDS011;48769;51.624;5.886;2022-12-18T07:16:16;39.35;;;20.33;;
62707;SDS011;48769;51.624;5.886;2022-12-18T07:18:43;36.70;;;19.35;;
62707;SDS011;48769;51.624;5.886;2022-12-18T07:21:10;40.17;;;20.48;;
62707;SDS011;48769;51.624;5.886;2022-12-18T07:23:38;40.47;;;21.65;;
62707;SDS011;48769;51.624;5.886;2022-12-18T07:26:04;38.03;;;20.05;;
62707;SDS011;48769;51.624;5.886;2022-12-18T07:28:31;37.75;;;19.83;;
62707;SDS011;48769;51.624;5.886;2022-12-18T07:30:57;41.72;;;19.92;;
62707;SDS011;48769;51.624;5.886;2022-12-18T07:33:24;40.58;;;20.38;;
62707;SDS011;48769;51.624;5.886;2022-12-18T07:35:49;40.92;;;20.92;;
62707;SDS011;48769;51.624;5.886;2022-12-18T07:38:15;42.90;;;20.55;;
62707;SDS011;48769;51.624;5.886;2022-12-18T07:40:40;40.00;;;21.10;;
62707;SDS011;48769;51.624;5.886;2022-12-18T07:43:05;36.65;;;17.85;;
62707;SDS011;48769;51.624;5.886;2022-12-18T07:45:31;40.13;;;21.17;;
62707;SDS011;48769;51.624;5.886;2022-12-18T07:47:56;37.33;;;20.45;;
62707;SDS011;48769;51.624;5.886;2022-12-18T07:50:21;44.08;;;21.85;;
62707;SDS011;48769;51.624;5.886;2022-12-18T07:52:47;42.83;;;19.90;;
62707;SDS011;48769;51.624;5.886;2022-12-18T07:55:12;45.15;;;21.27;;
62707;SDS011;48769;51.624;5.886;2022-12-18T07:57:37;42.38;;;22.38;;
62707;SDS011;48769;51.624;5.886;2022-12-18T08:00:03;42.92;;;21.65;;
62707;SDS011;48769;51.624;5.886;2022-12-18T08:02:30;39.75;;;21.90;;
62707;SDS011;48769;51.624;5.886;2022-12-18T08:04:56;42.63;;;21.98;;
62707;SDS011;48769;51.624;5.886;2022-12-18T08:07:21;47.97;;;21.80;;
62707;SDS011;48769;51.624;5.886;2022-12-18T08:09:47;43.90;;;22.25;;
62707;SDS011;48769;51.624;5.886;2022-12-18T08:12:12;39.65;;;21.67;;
62707;SDS011;48769;51.624;5.886;2022-12-18T08:14:37;43.15;;;21.52;;
62707;SDS011;48769;51.624;5.886;2022-12-18T08:17:03;37.97;;;20.20;;
62707;SDS011;48769;51.624;5.886;2022-12-18T08:19:28;42.75;;;21.73;;
62707;SDS011;48769;51.624;5.886;2022-12-18T08:21:53;43.00;;;22.02;;
62707;SDS011;48769;51.624;5.886;2022-12-18T08:24:18;42.75;;;22.27;;
62707;SDS011;48769;51.624;5.886;2022-12-18T08:26:44;40.35;;;20.15;;
62707;SDS011;48769;51.624;5.886;2022-12-18T08:29:09;44.00;;;21.77;;
62707;SDS011;48769;51.624;5.886;2022-12-18T08:31:35;38.33;;;20.83;;
62707;SDS011;48769;51.624;5.886;2022-12-18T08:34:03;39.42;;;21.45;;
62707;SDS011;48769;51.624;5.886;2022-12-18T08:36:29;43.13;;;22.35;;
62707;SDS011;48769;51.624;5.886;2022-12-18T08:38:54;39.17;;;20.02;;
62707;SDS011;48769;51.624;5.886;2022-12-18T08:41:19;45.65;;;19.48;;
62707;SDS011;48769;51.624;5.886;2022-12-18T08:43:46;38.53;;;20.08;;
62707;SDS011;48769;51.624;5.886;2022-12-18T08:46:37;41.08;;;21.08;;
62707;SDS011;48769;51.624;5.886;2022-12-18T08:49:05;40.90;;;20.25;;
62707;SDS011;48769;51.624;5.886;2022-12-18T08:51:32;38.70;;;20.02;;
62707;SDS011;48769;51.624;5.886;2022-12-18T08:53:58;37.05;;;19.73;;
62707;SDS011;48769;51.624;5.886;2022-12-18T08:56:23;39.90;;;21.17;;
62707;SDS011;48769;51.624;5.886;2022-12-18T08:58:52;41.55;;;21.30;;
62707;SDS011;48769;51.624;5.886;2022-12-18T09:01:18;40.63;;;21.38;;
62707;SDS011;48769;51.624;5.886;2022-12-18T09:03:44;41.35;;;20.80;;
62707;SDS011;48769;51.624;5.886;2022-12-18T09:06:13;36.63;;;19.55;;
62707;SDS011;48769;51.624;5.886;2022-12-18T09:08:40;37.20;;;20.35;;
62707;SDS011;48769;51.624;5.886;2022-12-18T09:11:10;33.92;;;18.63;;
62707;SDS011;48769;51.624;5.886;2022-12-18T09:13:38;38.00;;;19.63;;
62707;SDS011;48769;51.624;5.886;2022-12-18T09:16:03;36.40;;;19.17;;
62707;SDS011;48769;51.624;5.886;2022-12-18T09:18:29;39.03;;;20.20;;
62707;SDS011;48769;51.624;5.886;2022-12-18T09:20:54;35.22;;;18.92;;
62707;SDS011;48769;51.624;5.886;2022-12-18T09:23:19;38.88;;;21.27;;
62707;SDS011;48769;51.624;5.886;2022-12-18T09:25:45;34.97;;;19.05;;
62707;SDS011;48769;51.624;5.886;2022-12-18T09:28:12;34.97;;;18.38;;
62707;SDS011;48769;51.624;5.886;2022-12-18T09:30:39;37.72;;;19.33;;
62707;SDS011;48769;51.624;5.886;2022-12-18T09:33:06;36.58;;;19.83;;
62707;SDS011;48769;51.624;5.886;2022-12-18T09:35:31;38.83;;;19.75;;
62707;SDS011;48769;51.624;5.886;2022-12-18T09:37:57;35.20;;;19.25;;
62707;SDS011;48769;51.624;5.886;2022-12-18T09:40:23;38.15;;;20.63;;
62707;SDS011;48769;51.624;5.886;2022-12-18T09:42:52;37.53;;;21.08;;
62707;SDS011;48769;51.624;5.886;2022-12-18T09:45:22;41.10;;;21.17;;
62707;SDS011;48769;51.624;5.886;2022-12-18T09:47:49;39.25;;;20.10;;
62707;SDS011;48769;51.624;5.886;2022-12-18T09:50:28;37.45;;;20.05;;
62707;SDS011;48769;51.624;5.886;2022-12-18T09:52:59;38.45;;;20.58;;
62707;SDS011;48769;51.624;5.886;2022-12-18T09:55:42;39.03;;;19.80;;
62707;SDS011;48769;51.624;5.886;2022-12-18T10:00:45;32.80;;;17.88;;
62707;SDS011;48769;51.624;5.886;2022-12-18T10:03:12;36.20;;;19.20;;
62707;SDS011;48769;51.624;5.886;2022-12-18T10:05:41;31.33;;;18.50;;
62707;SDS011;48769;51.624;5.886;2022-12-18T10:10:51;32.47;;;18.92;;
62707;SDS011;48769;51.624;5.886;2022-12-18T10:13:21;33.28;;;17.40;;
62707;SDS011;48769;51.624;5.886;2022-12-18T10:21:43;30.27;;;16.38;;
62707;SDS011;48769;51.624;5.886;2022-12-18T10:26:47;36.58;;;19.10;;
62707;SDS011;48769;51.624;5.886;2022-12-18T10:29:13;32.28;;;17.02;;
62707;SDS011;48769;51.624;5.886;2022-12-18T10:31:40;35.17;;;18.45;;
62707;SDS011;48769;51.624;5.886;2022-12-18T10:34:09;30.77;;;18.40;;
62707;SDS011;48769;51.624;5.886;2022-12-18T10:36:35;33.33;;;18.70;;
62707;SDS011;48769;51.624;5.886;2022-12-18T10:39:13;34.70;;;18.23;;
62707;SDS011;48769;51.624;5.886;2022-12-18T10:41:40;34.45;;;18.73;;
62707;SDS011;48769;51.624;5.886;2022-12-18T10:44:16;31.58;;;17.58;;
62707;SDS011;48769;51.624;5.886;2022-12-18T10:46:48;33.47;;;18.67;;
62707;SDS011;48769;51.624;5.886;2022-12-18T10:49:19;30.13;;;18.15;;
62707;SDS011;48769;51.624;5.886;2022-12-18T10:51:47;31.95;;;18.23;;
62707;SDS011;48769;51.624;5.886;2022-12-18T10:54:16;35.45;;;18.45;;
62707;SDS011;48769;51.624;5.886;2022-12-18T10:56:44;31.73;;;17.67;;
62707;SDS011;48769;51.624;5.886;2022-12-18T10:59:11;33.15;;;18.88;;
62707;SDS011;48769;51.624;5.886;2022-12-18T11:04:13;34.63;;;20.23;;
62707;SDS011;48769;51.624;5.886;2022-12-18T11:06:56;29.03;;;17.40;;
62707;SDS011;48769;51.624;5.886;2022-12-18T11:09:24;41.40;;;20.60;;
62707;SDS011;48769;51.624;5.886;2022-12-18T11:11:54;35.10;;;18.98;;
62707;SDS011;48769;51.624;5.886;2022-12-18T11:14:26;36.50;;;19.25;;
62707;SDS011;48769;51.624;5.886;2022-12-18T11:16:54;32.63;;;18.35;;
62707;SDS011;48769;51.624;5.886;2022-12-18T11:21:54;35.03;;;19.42;;
62707;SDS011;48769;51.624;5.886;2022-12-18T11:24:29;35.42;;;18.35;;
62707;SDS011;48769;51.624;5.886;2022-12-18T11:27:00;30.98;;;17.92;;
62707;SDS011;48769;51.624;5.886;2022-12-18T11:29:38;36.80;;;20.27;;
62707;SDS011;48769;51.624;5.886;2022-12-18T11:35:04;36.10;;;19.75;;
62707;SDS011;48769;51.624;5.886;2022-12-18T11:38:06;32.55;;;18.48;;
62707;SDS011;48769;51.624;5.886;2022-12-18T11:41:04;31.85;;;18.77;;
62707;SDS011;48769;51.624;5.886;2022-12-18T11:46:36;36.30;;;19.65;;
62707;SDS011;48769;51.624;5.886;2022-12-18T11:49:11;34.75;;;18.38;;
62707;SDS011;48769;51.624;5.886;2022-12-18T11:52:02;34.75;;;19.25;;
62707;SDS011;48769;51.624;5.886;2022-12-18T11:54:54;31.92;;;18.25;;
62707;SDS011;48769;51.624;5.886;2022-12-18T12:05:28;33.85;;;18.52;;
62707;SDS011;48769;51.624;5.886;2022-12-18T12:13:43;33.88;;;18.83;;
62707;SDS011;48769;51.624;5.886;2022-12-18T12:35:19;28.85;;;17.40;;
62707;SDS011;48769;51.624;5.886;2022-12-18T12:38:14;31.33;;;18.75;;
62707;SDS011;48769;51.624;5.886;2022-12-18T12:40:46;42.08;;;19.75;;
62707;SDS011;48769;51.624;5.886;2022-12-18T12:43:20;32.10;;;17.73;;
62707;SDS011;48769;51.624;5.886;2022-12-18T12:45:48;34.65;;;18.85;;
62707;SDS011;48769;51.624;5.886;2022-12-18T12:48:38;34.10;;;19.50;;
62707;SDS011;48769;51.624;5.886;2022-12-18T12:53:44;32.67;;;18.38;;
62707;SDS011;48769;51.624;5.886;2022-12-18T12:56:11;31.33;;;17.48;;
62707;SDS011;48769;51.624;5.886;2022-12-18T13:01:23;33.72;;;19.88;;
62707;SDS011;48769;51.624;5.886;2022-12-18T13:03:56;33.20;;;19.05;;
62707;SDS011;48769;51.624;5.886;2022-12-18T13:06:45;33.47;;;20.08;;
62707;SDS011;48769;51.624;5.886;2022-12-18T13:09:18;36.78;;;20.08;;
62707;SDS011;48769;51.624;5.886;2022-12-18T13:11:45;32.92;;;18.70;;
62707;SDS011;48769;51.624;5.886;2022-12-18T13:14:31;35.35;;;20.02;;
62707;SDS011;48769;51.624;5.886;2022-12-18T13:17:14;36.28;;;19.73;;
62707;SDS011;48769;51.624;5.886;2022-12-18T13:19:40;35.70;;;18.88;;
62707;SDS011;48769;51.624;5.886;2022-12-18T13:22:12;32.25;;;18.92;;
62707;SDS011;48769;51.624;5.886;2022-12-18T13:24:50;36.17;;;21.63;;
62707;SDS011;48769;51.624;5.886;2022-12-18T13:30:38;36.22;;;20.08;;
62707;SDS011;48769;51.624;5.886;2022-12-18T13:35:39;35.75;;;19.55;;
62707;SDS011;48769;51.624;5.886;2022-12-18T13:38:22;33.45;;;19.00;;
62707;SDS011;48769;51.624;5.886;2022-12-18T13:48:23;34.97;;;19.33;;
62707;SDS011;48769;51.624;5.886;2022-12-18T13:50:56;39.90;;;21.55;;
62707;SDS011;48769;51.624;5.886;2022-12-18T13:53:26;38.85;;;20.30;;
62707;SDS011;48769;51.624;5.886;2022-12-18T13:55:55;32.35;;;19.25;;
62707;SDS011;48769;51.624;5.886;2022-12-18T13:58:21;38.47;;;20.55;;
62707;SDS011;48769;51.624;5.886;2022-12-18T14:00:46;35.13;;;18.52;;
62707;SDS011;48769;51.624;5.886;2022-12-18T14:03:33;36.92;;;21.02;;
62707;SDS011;48769;51.624;5.886;2022-12-18T14:06:07;39.97;;;20.92;;
62707;SDS011;48769;51.624;5.886;2022-12-18T14:08:36;40.58;;;20.48;;
62707;SDS011;48769;51.624;5.886;2022-12-18T14:11:04;35.33;;;19.67;;
62707;SDS011;48769;51.624;5.886;2022-12-18T14:13:32;36.38;;;20.90;;
62707;SDS011;48769;51.624;5.886;2022-12-18T14:16:03;37.13;;;20.77;;
62707;SDS011;48769;51.624;5.886;2022-12-18T14:21:21;39.08;;;20.95;;
62707;SDS011;48769;51.624;5.886;2022-12-18T14:26:43;34.88;;;20.48;;
62707;SDS011;48769;51.624;5.886;2022-12-18T14:34:48;39.33;;;21.23;;
62707;SDS011;48769;51.624;5.886;2022-12-18T14:37:22;40.08;;;20.70;;
62707;SDS011;48769;51.624;5.886;2022-12-18T14:40:00;39.70;;;20.77;;
62707;SDS011;48769;51.624;5.886;2022-12-18T14:42:27;34.85;;;20.15;;
62707;SDS011;48769;51.624;5.886;2022-12-18T14:47:56;40.90;;;22.13;;
62707;SDS011;48769;51.624;5.886;2022-12-18T14:50:23;40.72;;;20.83;;
62707;SDS011;48769;51.624;5.886;2022-12-18T14:52:48;41.00;;;21.02;;
62707;SDS011;48769;51.624;5.886;2022-12-18T14:55:16;40.40;;;22.17;;
62707;SDS011;48769;51.624;5.886;2022-12-18T14:57:42;37.20;;;21.27;;
62707;SDS011;48769;51.624;5.886;2022-12-18T15:00:16;38.67;;;21.95;;
62707;SDS011;48769;51.624;5.886;2022-12-18T15:02:43;38.88;;;21.08;;
62707;SDS011;48769;51.624;5.886;2022-12-18T15:05:24;40.08;;;21.38;;
62707;SDS011;48769;51.624;5.886;2022-12-18T15:07:53;43.00;;;23.70;;
62707;SDS011;48769;51.624;5.886;2022-12-18T15:10:24;40.15;;;21.90;;
62707;SDS011;48769;51.624;5.886;2022-12-18T15:17:58;42.60;;;23.60;;
62707;SDS011;48769;51.624;5.886;2022-12-18T15:20:33;49.53;;;25.10;;
62707;SDS011;48769;51.624;5.886;2022-12-18T15:23:16;41.47;;;22.70;;
62707;SDS011;48769;51.624;5.886;2022-12-18T15:25:46;46.80;;;24.25;;
62707;SDS011;48769;51.624;5.886;2022-12-18T15:28:26;47.03;;;26.08;;
62707;SDS011;48769;51.624;5.886;2022-12-18T15:33:59;43.75;;;24.50;;
62707;SDS011;48769;51.624;5.886;2022-12-18T15:36:25;48.25;;;24.58;;
62707;SDS011;48769;51.624;5.886;2022-12-18T15:38:55;46.65;;;25.73;;
62707;SDS011;48769;51.624;5.886;2022-12-18T15:41:21;46.90;;;25.15;;
62707;SDS011;48769;51.624;5.886;2022-12-18T15:43:48;46.15;;;25.30;;
62707;SDS011;48769;51.624;5.886;2022-12-18T15:46:15;47.85;;;25.77;;
62707;SDS011;48769;51.624;5.886;2022-12-18T15:48:46;48.60;;;25.58;;
62707;SDS011;48769;51.624;5.886;2022-12-18T15:53:41;43.40;;;24.40;;
62707;SDS011;48769;51.624;5.886;2022-12-18T15:56:09;45.25;;;24.73;;
62707;SDS011;48769;51.624;5.886;2022-12-18T15:58:55;47.92;;;25.50;;
62707;SDS011;48769;51.624;5.886;2022-12-18T16:01:22;45.58;;;24.92;;
62707;SDS011;48769;51.624;5.886;2022-12-18T16:03:49;46.75;;;24.83;;
62707;SDS011;48769;51.624;5.886;2022-12-18T16:06:14;48.90;;;25.42;;
62707;SDS011;48769;51.624;5.886;2022-12-18T16:08:40;52.08;;;25.85;;
62707;SDS011;48769;51.624;5.886;2022-12-18T16:11:05;51.72;;;25.63;;
62707;SDS011;48769;51.624;5.886;2022-12-18T16:13:31;52.50;;;26.40;;
62707;SDS011;48769;51.624;5.886;2022-12-18T16:15:56;47.55;;;24.70;;
62707;SDS011;48769;51.624;5.886;2022-12-18T16:18:22;46.50;;;24.92;;
62707;SDS011;48769;51.624;5.886;2022-12-18T16:20:47;42.33;;;23.50;;
62707;SDS011;48769;51.624;5.886;2022-12-18T16:23:12;44.97;;;24.92;;
62707;SDS011;48769;51.624;5.886;2022-12-18T16:25:38;47.25;;;25.40;;
62707;SDS011;48769;51.624;5.886;2022-12-18T16:28:03;48.50;;;25.42;;
62707;SDS011;48769;51.624;5.886;2022-12-18T16:30:29;47.72;;;25.23;;
62707;SDS011;48769;51.624;5.886;2022-12-18T16:32:59;49.88;;;26.70;;
62707;SDS011;48769;51.624;5.886;2022-12-18T16:35:25;48.35;;;26.10;;
62707;SDS011;48769;51.624;5.886;2022-12-18T16:37:51;46.90;;;26.02;;